Firdale, Washington
Current Conditions -  °F | °C
As of 6:53 AM on Thursday 30 Oct 2014 (Local Time) from KHQM Reporting Station
Light Rain Light Rain  
Wind Chill: 55°   Ceiling: 6000
Heat Index: 55°   Visibility: 4mi
Dew Point: 53°   Wind: 10mph
Humidity: 93%   Direction: 70°ENE
Pressure: 29.83"   Gusts: NA
Location:  46.6563°N, 123.58°W
Report Text: KHQM 301353Z AUTO 07009KT 4SM -RA BR FEW046 BKN060 OVC080 13/12 A2983 RMK AO2 RAB20 SLP106 P0005 T01280117
Loading
Personal Weather Stations






























Interactive Weather Map
Tropical Storm Tracking
New forecast layout! Learn more

10-Day Weather Forecast

Advertisements
Track Severe Weather on mobile